createdAt,value
2019-04-05T00:02:13.378Z,11.39
2019-04-05T00:04:42.993Z,11.23
2019-04-05T00:07:12.531Z,11.39
2019-04-05T00:09:42.492Z,11.47
2019-04-05T00:12:12.187Z,11.67
2019-04-05T00:14:41.733Z,11.57
2019-04-05T00:17:11.375Z,11.70
2019-04-05T00:19:41.067Z,11.70
2019-04-05T00:22:10.693Z,11.47
2019-04-05T00:24:43.088Z,11.58
2019-04-05T00:27:12.634Z,11.71
2019-04-05T00:29:42.220Z,11.60
2019-04-05T00:32:11.786Z,11.70
2019-04-05T00:34:41.392Z,11.59
2019-04-05T00:37:10.946Z,11.58
2019-04-05T00:39:40.607Z,11.46
2019-04-05T00:42:10.209Z,11.61
2019-04-05T00:44:39.960Z,11.63
2019-04-05T00:47:09.935Z,11.68
2019-04-05T00:49:39.551Z,11.67
2019-04-05T00:52:09.181Z,11.65
2019-04-05T00:54:38.858Z,11.58
2019-04-05T00:57:08.459Z,11.70
2019-04-05T00:59:38.057Z,11.66
2019-04-05T01:02:07.891Z,11.62
2019-04-05T01:04:37.455Z,11.76
2019-04-05T01:07:07.126Z,11.92
2019-04-05T01:09:37.227Z,11.90
2019-04-05T01:12:07.053Z,11.89
2019-04-05T01:14:37.949Z,11.61
2019-04-05T01:17:07.596Z,11.72
2019-04-05T01:19:38.727Z,11.74
2019-04-05T01:22:11.281Z,11.76
2019-04-05T01:24:42.638Z,11.77
2019-04-05T01:27:13.620Z,11.82
2019-04-05T01:29:46.360Z,12.02
2019-04-05T01:32:16.027Z,12.09
2019-04-05T01:34:45.648Z,12.02
2019-04-05T01:37:15.170Z,11.94
2019-04-05T01:39:44.963Z,11.87
2019-04-05T01:42:14.738Z,11.80
2019-04-05T01:44:44.618Z,11.67
2019-04-05T01:47:14.193Z,11.73
2019-04-05T01:49:43.738Z,11.88
2019-04-05T01:52:13.411Z,11.64
2019-04-05T01:54:43.001Z,11.73
2019-04-05T01:57:12.702Z,11.77
2019-04-05T01:59:42.345Z,11.90
2019-04-05T02:02:12.301Z,11.88
2019-04-05T02:04:41.894Z,11.87
2019-04-05T02:07:11.564Z,12.01
2019-04-05T02:09:41.492Z,11.92
2019-04-05T02:12:11.103Z,12.00
2019-04-05T02:14:40.740Z,11.96
2019-04-05T02:17:10.443Z,11.89
2019-04-05T02:19:40.124Z,11.82
2019-04-05T02:22:09.806Z,12.00
2019-04-05T02:24:39.816Z,12.05
2019-04-05T02:27:09.367Z,12.00
2019-04-05T02:29:39.050Z,11.87
2019-04-05T02:32:08.776Z,11.98
2019-04-05T02:34:38.468Z,11.96
2019-04-05T02:37:08.224Z,11.92
2019-04-05T02:39:37.966Z,12.05
2019-04-05T02:42:07.651Z,12.08
2019-04-05T02:44:39.211Z,12.00
2019-04-05T02:47:11.133Z,11.94
2019-04-05T02:49:42.214Z,11.87
2019-04-05T02:52:12.891Z,11.76
2019-04-05T02:54:44.018Z,11.57
2019-04-05T02:57:17.074Z,11.78
2019-04-05T02:59:48.434Z,11.74
2019-04-05T03:02:19.782Z,11.72
2019-04-05T03:04:49.548Z,11.90
2019-04-05T03:07:19.803Z,11.79
2019-04-05T03:09:51.537Z,11.83
2019-04-05T03:12:22.306Z,11.85
2019-04-05T03:14:52.760Z,11.86
2019-04-05T03:17:24.376Z,11.83
2019-04-05T03:19:57.440Z,11.99
2019-04-05T03:22:29.746Z,12.08
2019-04-05T03:25:01.429Z,12.05
2019-04-05T03:27:34.305Z,12.10
2019-04-05T03:30:06.750Z,11.76
2019-04-05T03:32:36.523Z,11.63
2019-04-05T03:35:08.045Z,11.73
2019-04-05T03:37:37.845Z,11.78
2019-04-05T03:40:09.201Z,11.79
2019-04-05T03:42:39.375Z,11.86
2019-04-05T03:45:09.131Z,11.93
2019-04-05T03:47:39.115Z,11.84
2019-04-05T03:50:11.960Z,12.02
2019-04-05T03:52:41.689Z,12.07
2019-04-05T03:55:11.346Z,12.12
2019-04-05T03:57:41.024Z,12.01
2019-04-05T04:00:11.273Z,11.95
2019-04-05T04:02:41.030Z,11.92
2019-04-05T04:05:10.667Z,12.02
2019-04-05T04:07:40.328Z,12.05
2019-04-05T04:10:17.641Z,11.99
2019-04-05T04:12:47.470Z,11.96
2019-04-05T04:15:17.627Z,12.00
2019-04-05T04:17:47.717Z,12.09
2019-04-05T04:20:30.658Z,11.91
2019-04-05T04:23:00.367Z,11.90
2019-04-05T04:25:30.625Z,11.57
2019-04-05T04:28:00.406Z,11.62
2019-04-05T04:30:30.546Z,11.48
2019-04-05T04:33:02.076Z,11.65
2019-04-05T04:35:31.908Z,11.62
2019-04-05T04:38:02.120Z,11.84
2019-04-05T04:40:32.668Z,11.63
2019-04-05T04:43:02.626Z,11.57
2019-04-05T04:45:34.571Z,11.64
2019-04-05T04:48:04.350Z,11.56
2019-04-05T04:50:35.889Z,11.43
2019-04-05T04:53:06.098Z,11.28
2019-04-05T04:55:37.271Z,11.15
2019-04-05T04:58:06.948Z,11.51
2019-04-05T05:00:40.298Z,11.65
2019-04-05T05:03:09.968Z,11.63
2019-04-05T05:05:39.795Z,11.65
2019-04-05T05:08:10.238Z,11.53
2019-04-05T05:10:39.907Z,11.73
2019-04-05T05:13:09.660Z,11.96
2019-04-05T05:15:39.387Z,11.89
2019-04-05T05:18:09.356Z,12.02
2019-04-05T05:20:39.002Z,11.98
2019-04-05T05:23:11.734Z,11.92
2019-04-05T05:25:41.608Z,12.00
2019-04-05T05:28:11.784Z,11.89
2019-04-05T05:30:41.505Z,12.03
2019-04-05T05:33:11.691Z,12.04
2019-04-05T05:35:41.316Z,11.90
2019-04-05T05:38:11.467Z,11.96
2019-04-05T05:40:41.427Z,12.02
2019-04-05T05:43:11.124Z,11.95
2019-04-05T05:45:40.952Z,12.05
2019-04-05T05:48:10.646Z,12.14
2019-04-05T05:50:41.266Z,12.14
2019-04-05T05:53:12.300Z,12.17
2019-04-05T05:55:41.980Z,12.09
2019-04-05T05:58:11.519Z,12.07
2019-04-05T06:00:41.203Z,11.90
2019-04-05T06:03:11.360Z,11.95
2019-04-05T06:05:41.835Z,11.90
2019-04-05T06:08:11.637Z,12.05
2019-04-05T06:10:41.165Z,11.89
2019-04-05T06:13:10.772Z,12.08
2019-04-05T06:15:40.379Z,12.16
2019-04-05T06:18:12.695Z,12.13
2019-04-05T06:20:42.724Z,12.28
2019-04-05T06:23:13.500Z,12.38
2019-04-05T06:25:43.144Z,12.39
2019-04-05T06:28:15.118Z,12.17
2019-04-05T06:30:44.803Z,12.33
2019-04-05T06:33:14.757Z,12.36
2019-04-05T06:35:44.513Z,12.37
2019-04-05T06:38:14.612Z,12.34
2019-04-05T06:40:44.281Z,12.28
2019-04-05T06:43:14.021Z,11.99
2019-04-05T06:45:43.623Z,12.12
2019-04-05T06:48:19.448Z,12.14
2019-04-05T06:50:47.130Z,12.36
2019-04-05T06:53:16.062Z,12.32
2019-04-05T06:55:45.688Z,12.13
2019-04-05T06:58:19.563Z,12.20
2019-04-05T07:00:56.778Z,12.17
2019-04-05T07:03:18.501Z,12.26
2019-04-05T07:05:48.123Z,12.42
2019-04-05T07:08:18.567Z,12.48
2019-04-05T07:10:48.489Z,12.21
2019-04-05T07:13:18.048Z,12.15
2019-04-05T07:15:47.694Z,12.38
2019-04-05T07:18:17.230Z,12.23
2019-04-05T07:20:46.853Z,12.49
2019-04-05T07:23:16.775Z,12.31
2019-04-05T07:25:46.327Z,12.53
2019-04-05T07:28:16.039Z,12.55
2019-04-05T07:30:45.982Z,12.67
2019-04-05T07:33:15.647Z,12.69
2019-04-05T07:35:45.259Z,12.63
2019-04-05T07:38:14.886Z,12.65
2019-04-05T07:40:44.440Z,12.66
2019-04-05T07:43:13.992Z,12.82
2019-04-05T07:45:45.940Z,12.92
2019-04-05T07:48:15.202Z,12.91
2019-04-05T07:50:44.765Z,12.67
2019-04-05T07:53:14.521Z,12.81
2019-04-05T07:55:44.133Z,12.79
2019-04-05T07:58:15.502Z,12.72
2019-04-05T08:00:54.911Z,12.66
2019-04-05T08:03:25.296Z,12.69
2019-04-05T08:05:55.443Z,12.88
2019-04-05T08:08:36.305Z,12.76
2019-04-05T08:11:06.435Z,12.79
2019-04-05T08:13:39.005Z,12.54
2019-04-05T08:16:08.895Z,12.78
2019-04-05T08:18:38.459Z,12.80
2019-04-05T08:21:08.124Z,12.83
2019-04-05T08:23:39.256Z,13.07
2019-04-05T08:26:09.827Z,12.85
2019-04-05T08:28:39.515Z,12.95
2019-04-05T08:31:10.693Z,12.88
2019-04-05T08:33:40.712Z,12.95
2019-04-05T08:36:10.323Z,13.12
2019-04-05T08:38:40.349Z,13.14
2019-04-05T08:41:09.931Z,13.04
2019-04-05T08:43:39.695Z,13.20
2019-04-05T08:46:09.502Z,13.38
2019-04-05T08:48:39.066Z,13.40
2019-04-05T08:51:09.154Z,13.20
2019-04-05T08:53:38.845Z,13.28
2019-04-05T08:56:08.418Z,13.27
2019-04-05T08:58:38.055Z,13.38
2019-04-05T09:01:07.903Z,13.29
2019-04-05T09:03:37.437Z,13.41
2019-04-05T09:06:07.162Z,13.54
2019-04-05T09:08:36.873Z,13.66
2019-04-05T09:11:06.839Z,13.48
2019-04-05T09:13:36.429Z,13.54
2019-04-05T09:16:06.353Z,13.66
2019-04-05T09:18:35.904Z,13.78
2019-04-05T09:21:05.581Z,13.75
2019-04-05T09:23:35.436Z,13.59
2019-04-05T09:26:05.491Z,13.55
2019-04-05T09:28:35.437Z,13.57
2019-04-05T09:31:05.072Z,13.40
2019-04-05T09:33:34.940Z,13.75
2019-04-05T09:36:04.615Z,13.84
2019-04-05T09:38:34.575Z,13.88
2019-04-05T09:41:04.339Z,13.94
2019-04-05T09:43:33.885Z,13.89
2019-04-05T09:46:03.589Z,13.96
2019-04-05T09:48:36.248Z,14.06
2019-04-05T09:51:10.863Z,14.32
2019-04-05T09:53:44.254Z,14.35
2019-04-05T09:56:15.538Z,14.29
2019-04-05T09:58:45.133Z,14.37
2019-04-05T10:01:14.866Z,14.41
2019-04-05T10:03:45.141Z,14.62
2019-04-05T10:06:14.670Z,14.46
2019-04-05T10:08:44.192Z,14.51
2019-04-05T10:11:13.733Z,14.45
2019-04-05T10:13:43.286Z,14.46
2019-04-05T10:16:12.847Z,14.29
2019-04-05T10:18:42.495Z,14.50
2019-04-05T10:21:12.100Z,14.64
2019-04-05T10:23:41.637Z,14.60
2019-04-05T10:26:11.443Z,14.71
2019-04-05T10:28:40.980Z,14.61
2019-04-05T10:31:10.561Z,14.74
2019-04-05T10:33:40.204Z,14.78
2019-04-05T10:36:09.737Z,14.92
2019-04-05T10:38:39.277Z,14.99
2019-04-05T10:41:08.847Z,14.93
2019-04-05T10:43:38.473Z,14.94
2019-04-05T10:46:08.049Z,15.03
2019-04-05T10:48:37.878Z,14.83
2019-04-05T10:51:07.563Z,14.84
2019-04-05T10:53:37.098Z,15.02
2019-04-05T10:56:06.723Z,15.14
2019-04-05T10:58:36.535Z,15.21
2019-04-05T11:01:06.406Z,15.09
2019-04-05T11:03:36.104Z,15.11
2019-04-05T11:06:05.807Z,14.75
2019-04-05T11:08:35.318Z,14.86
2019-04-05T11:11:08.460Z,14.94
2019-04-05T11:13:38.125Z,14.93
2019-04-05T11:16:07.715Z,14.89
2019-04-05T11:18:37.281Z,14.67
2019-04-05T11:21:06.946Z,14.49
2019-04-05T11:23:36.565Z,14.49
2019-04-05T11:26:06.433Z,14.44
2019-04-05T11:28:35.958Z,14.60
2019-04-05T11:31:05.686Z,14.43
2019-04-05T11:33:38.415Z,14.63
2019-04-05T11:36:08.571Z,14.77
2019-04-05T11:38:39.557Z,14.66
2019-04-05T11:41:09.757Z,14.47
2019-04-05T11:43:41.042Z,14.64
2019-04-05T11:46:10.684Z,14.60
2019-04-05T11:48:41.342Z,14.66
2019-04-05T11:51:11.142Z,14.74
2019-04-05T11:53:40.677Z,14.74
2019-04-05T11:56:15.014Z,15.04
2019-04-05T11:58:43.714Z,15.09
2019-04-05T12:01:14.877Z,15.03
2019-04-05T12:03:44.611Z,14.95
2019-04-05T12:06:14.131Z,14.99
2019-04-05T12:08:43.714Z,14.98
2019-04-05T12:11:13.360Z,14.77
2019-04-05T12:13:43.108Z,14.69
2019-04-05T12:16:12.609Z,14.33
2019-04-05T12:18:42.186Z,13.87
2019-04-05T12:21:11.780Z,14.03
2019-04-05T12:23:41.409Z,13.97
2019-04-05T12:26:12.169Z,13.84
2019-04-05T12:28:41.682Z,13.74
2019-04-05T12:31:11.357Z,13.63
2019-04-05T12:33:40.977Z,13.74
2019-04-05T12:36:10.685Z,13.55
2019-04-05T12:38:40.204Z,13.75
2019-04-05T12:41:11.039Z,13.77
2019-04-05T12:43:43.802Z,13.90
2019-04-05T12:46:16.099Z,13.60
2019-04-05T12:48:46.290Z,13.42
2019-04-05T12:51:16.366Z,13.63
2019-04-05T12:53:46.089Z,13.71
2019-04-05T12:56:15.660Z,13.78
2019-04-05T12:58:45.298Z,13.33
2019-04-05T13:01:14.864Z,13.19
2019-04-05T13:03:44.554Z,13.10
2019-04-05T13:06:14.099Z,13.25
2019-04-05T13:08:43.687Z,13.32
2019-04-05T13:11:13.364Z,13.40
2019-04-05T13:13:42.953Z,13.31
2019-04-05T13:16:12.559Z,13.47
2019-04-05T13:18:42.317Z,13.66
2019-04-05T13:21:15.073Z,13.74
2019-04-05T13:23:43.067Z,13.62
2019-04-05T13:26:12.707Z,13.44
2019-04-05T13:28:42.360Z,13.87
2019-04-05T13:31:12.006Z,14.00
2019-04-05T13:33:42.940Z,13.92
2019-04-05T13:36:12.602Z,13.86
2019-04-05T13:38:54.234Z,13.68
2019-04-05T13:41:13.483Z,13.87
2019-04-05T13:43:42.998Z,13.78
2019-04-05T13:46:21.830Z,13.85
2019-04-05T13:48:44.229Z,13.67
2019-04-05T13:51:13.786Z,13.80
2019-04-05T13:53:43.395Z,13.83
2019-04-05T13:56:12.949Z,13.34
2019-04-05T13:58:46.178Z,13.54
2019-04-05T14:01:13.784Z,13.59
2019-04-05T14:03:43.331Z,13.56
2019-04-05T14:06:12.915Z,13.57
2019-04-05T14:08:42.494Z,13.15
2019-04-05T14:11:12.447Z,13.25
2019-04-05T14:13:43.054Z,13.53
2019-04-05T14:16:13.208Z,13.43
2019-04-05T14:18:49.405Z,13.57
2019-04-05T14:21:15.321Z,13.63
2019-04-05T14:23:44.981Z,13.88
2019-04-05T14:26:14.842Z,14.10
2019-04-05T14:28:44.358Z,14.19
2019-04-05T14:31:13.897Z,13.95
2019-04-05T14:33:43.461Z,13.77
2019-04-05T14:36:13.067Z,13.41
2019-04-05T14:38:42.672Z,13.63
2019-04-05T14:41:12.301Z,13.51
2019-04-05T14:43:44.586Z,13.71
2019-04-05T14:46:13.126Z,13.71
2019-04-05T14:48:43.950Z,13.75
2019-04-05T14:51:13.582Z,14.12
2019-04-05T14:53:44.753Z,14.35
2019-04-05T14:56:14.391Z,14.23
2019-04-05T14:58:44.008Z,14.18
2019-04-05T15:01:15.538Z,14.00
2019-04-05T15:03:46.289Z,13.98
2019-04-05T15:06:16.108Z,13.83
2019-04-05T15:08:47.882Z,14.22
2019-04-05T15:11:17.543Z,14.18
2019-04-05T15:13:47.575Z,14.16
2019-04-05T15:16:17.305Z,14.28
2019-04-05T15:18:47.833Z,14.08
2019-04-05T15:21:17.365Z,13.69
2019-04-05T15:23:47.048Z,13.47
2019-04-05T15:26:20.544Z,13.13
2019-04-05T15:28:48.128Z,13.04
2019-04-05T15:31:17.657Z,13.37
2019-04-05T15:33:47.286Z,13.49
2019-04-05T15:36:16.976Z,13.47
2019-04-05T15:38:48.349Z,13.60
2019-04-05T15:41:18.494Z,13.37
2019-04-05T15:43:48.183Z,13.60
2019-04-05T15:46:17.722Z,13.60
2019-04-05T15:48:47.468Z,13.55
2019-04-05T15:51:17.047Z,13.06
2019-04-05T15:53:46.608Z,12.88
2019-04-05T15:56:16.263Z,12.91
2019-04-05T15:58:45.852Z,13.15
2019-04-05T16:01:17.648Z,13.18
2019-04-05T16:03:47.565Z,13.07
2019-04-05T16:06:17.175Z,12.97
2019-04-05T16:08:46.795Z,12.80
2019-04-05T16:11:16.435Z,13.03
2019-04-05T16:13:46.020Z,13.07
2019-04-05T16:16:15.651Z,12.99
2019-04-05T16:18:45.467Z,13.06
2019-04-05T16:21:15.175Z,13.00
2019-04-05T16:23:45.035Z,12.86
2019-04-05T16:26:15.165Z,12.90
2019-04-05T16:28:44.699Z,13.02
2019-04-05T16:31:14.320Z,12.94
2019-04-05T16:33:46.616Z,13.04
2019-04-05T16:36:16.705Z,12.88
2019-04-05T16:38:46.386Z,13.03
2019-04-05T16:41:17.245Z,13.08
2019-04-05T16:43:46.866Z,13.07
2019-04-05T16:46:16.555Z,12.98
2019-04-05T16:48:46.202Z,12.83
2019-04-05T16:51:16.015Z,12.91
2019-04-05T16:53:53.098Z,12.93
2019-04-05T16:56:22.712Z,13.12
2019-04-05T16:58:52.261Z,13.18
2019-04-05T17:01:27.260Z,12.96
2019-04-05T17:03:54.037Z,13.11
2019-04-05T17:06:23.807Z,13.09
2019-04-05T17:08:53.519Z,13.19
2019-04-05T17:11:23.126Z,12.83
2019-04-05T17:13:52.728Z,12.92
2019-04-05T17:16:22.385Z,12.99
2019-04-05T17:18:51.898Z,12.60
2019-04-05T17:21:21.529Z,12.60
2019-04-05T17:23:53.076Z,12.82
2019-04-05T17:26:22.671Z,12.55
2019-04-05T17:28:52.211Z,12.77
2019-04-05T17:31:21.830Z,12.73
2019-04-05T17:33:51.366Z,12.95
2019-04-05T17:36:20.977Z,12.83
2019-04-05T17:38:52.167Z,12.53
2019-04-05T17:41:22.127Z,12.75
2019-04-05T17:43:51.712Z,12.61
2019-04-05T17:46:23.207Z,12.70
2019-04-05T17:48:52.870Z,12.67
2019-04-05T17:51:22.444Z,12.54
2019-04-05T17:53:52.169Z,12.86
2019-04-05T17:56:22.515Z,12.74
2019-04-05T17:58:52.675Z,12.82
2019-04-05T18:01:22.534Z,12.77
2019-04-05T18:03:52.636Z,12.81
2019-04-05T18:06:22.316Z,12.69
2019-04-05T18:08:52.976Z,12.75
2019-04-05T18:11:22.754Z,12.88
2019-04-05T18:13:52.290Z,12.94
2019-04-05T18:16:21.883Z,12.89
2019-04-05T18:18:51.440Z,12.88
2019-04-05T18:21:20.929Z,12.81
2019-04-05T18:23:50.653Z,12.61
2019-04-05T18:26:20.421Z,12.58
2019-04-05T18:28:49.951Z,12.68
2019-04-05T18:31:19.885Z,12.77
2019-04-05T18:33:49.499Z,12.69
2019-04-05T18:36:19.185Z,12.80
2019-04-05T18:38:48.736Z,12.87
2019-04-05T18:41:18.375Z,12.97
2019-04-05T18:43:48.036Z,12.80
2019-04-05T18:46:17.684Z,12.65
2019-04-05T18:48:47.549Z,12.79
2019-04-05T18:51:17.231Z,12.99
2019-04-05T18:53:47.395Z,13.03
2019-04-05T18:56:17.490Z,12.96
2019-04-05T18:58:47.077Z,12.85
2019-04-05T19:01:16.773Z,12.68
2019-04-05T19:03:46.372Z,12.90
2019-04-05T19:06:16.550Z,12.89
2019-04-05T19:08:47.092Z,12.83
2019-04-05T19:11:16.707Z,12.83
2019-04-05T19:13:46.322Z,12.92
2019-04-05T19:16:15.988Z,12.87
2019-04-05T19:18:46.387Z,12.97
2019-04-05T19:21:15.978Z,12.91
2019-04-05T19:23:50.982Z,12.66
2019-04-05T19:26:17.074Z,12.56
2019-04-05T19:28:46.657Z,12.81
2019-04-05T19:48:59.027Z,12.68
2019-04-05T19:51:28.695Z,12.76
2019-04-05T19:54:01.153Z,12.64
2019-04-05T19:56:29.690Z,12.67
2019-04-05T19:58:59.325Z,12.55
2019-04-05T20:01:30.173Z,12.49
2019-04-05T20:03:59.699Z,12.54
2019-04-05T20:06:29.917Z,12.54
2019-04-05T20:08:59.625Z,12.44
2019-04-05T20:11:29.994Z,12.55
2019-04-05T20:13:59.902Z,12.63
2019-04-05T20:16:29.656Z,12.61
2019-04-05T20:18:59.254Z,12.63
2019-04-05T20:21:29.410Z,12.75
2019-04-05T20:23:59.047Z,12.85
2019-04-05T20:26:29.000Z,12.85
2019-04-05T20:28:58.541Z,12.77
2019-04-05T20:31:28.135Z,12.86
2019-04-05T20:34:02.499Z,13.04
2019-04-05T20:36:32.010Z,13.13
2019-04-05T20:39:04.845Z,13.15
2019-04-05T20:41:34.502Z,13.17
2019-04-05T20:44:04.295Z,13.34
2019-04-05T20:46:34.118Z,13.28
2019-04-05T20:49:03.851Z,13.08
2019-04-05T20:51:33.371Z,12.98
2019-04-05T20:54:03.049Z,13.04
2019-04-05T20:56:32.761Z,12.95
2019-04-05T20:59:02.450Z,13.19
2019-04-05T21:01:32.330Z,13.32
2019-04-05T21:04:02.069Z,13.38
2019-04-05T21:06:31.805Z,13.39
2019-04-05T21:09:04.501Z,13.43
2019-04-05T21:11:34.127Z,13.40
2019-04-05T21:14:03.853Z,13.19
2019-04-05T21:16:33.768Z,13.06
2019-04-05T21:19:04.987Z,13.14
2019-04-05T21:21:34.669Z,13.11
2019-04-05T21:24:04.347Z,13.15
2019-04-05T21:26:33.881Z,13.26
2019-04-05T21:29:03.577Z,13.33
2019-04-05T21:31:33.284Z,13.25
2019-04-05T21:34:02.913Z,13.23
2019-04-05T21:36:32.488Z,13.06
2019-04-05T21:39:02.148Z,12.93
2019-04-05T21:41:32.017Z,13.01
2019-04-05T21:44:01.574Z,13.05
2019-04-05T21:46:33.769Z,13.00
2019-04-05T21:49:03.737Z,12.97
2019-04-05T21:51:33.462Z,13.02
2019-04-05T21:54:03.752Z,13.10
2019-04-05T21:56:33.409Z,13.03
2019-04-05T21:59:03.265Z,13.20
2019-04-05T22:01:32.922Z,13.34
2019-04-05T22:04:04.060Z,13.39
2019-04-05T22:06:33.629Z,13.51
2019-04-05T22:09:06.666Z,13.51
2019-04-05T22:11:36.488Z,13.51
2019-04-05T22:14:06.117Z,13.33
2019-04-05T22:16:35.770Z,13.33
2019-04-05T22:19:05.327Z,13.13
2019-04-05T22:21:34.955Z,13.20
2019-04-05T22:24:04.780Z,13.33
2019-04-05T22:26:34.452Z,13.33
2019-04-05T22:29:04.109Z,13.14
2019-04-05T22:31:34.528Z,13.16
2019-04-05T22:34:04.273Z,13.20
2019-04-05T22:36:33.847Z,13.12
2019-04-05T22:39:03.566Z,13.07
2019-04-05T22:41:33.295Z,13.00
2019-04-05T22:44:02.960Z,12.93
2019-04-05T22:46:35.317Z,12.91
2019-04-05T22:49:05.103Z,12.75
2019-04-05T22:51:34.663Z,12.77
2019-04-05T22:54:04.370Z,12.73
2019-04-05T22:56:33.985Z,12.79
2019-04-05T22:59:04.304Z,12.68
2019-04-05T23:01:34.447Z,12.55
2019-04-05T23:04:04.342Z,12.57
2019-04-05T23:06:34.649Z,12.33
2019-04-05T23:09:08.004Z,12.12
2019-04-05T23:11:37.721Z,12.05
2019-04-05T23:14:07.392Z,12.14
2019-04-05T23:16:37.048Z,12.34
2019-04-05T23:19:06.732Z,12.43
2019-04-05T23:21:36.383Z,12.24
2019-04-05T23:24:06.056Z,12.26
2019-04-05T23:26:35.619Z,12.31
2019-04-05T23:29:05.177Z,12.12
2019-04-05T23:31:35.576Z,12.26
2019-04-05T23:34:05.202Z,12.17
2019-04-05T23:36:34.820Z,12.11
2019-04-05T23:39:06.978Z,12.07
2019-04-05T23:41:36.566Z,11.99
2019-04-05T23:44:06.260Z,12.02
2019-04-05T23:46:36.218Z,12.02
2019-04-05T23:49:05.777Z,12.02
2019-04-05T23:51:35.398Z,11.94
2019-04-05T23:54:05.113Z,11.85
2019-04-05T23:56:34.682Z,11.80
2019-04-05T23:59:04.312Z,11.75
